@mimorinka おはようございます
ようこそこちら側(花粉部)へ

8時起きはブルジョワ

うち20枚くらいだけど、何枚か布教の使ったからな

@nelsoncoffeeroaster 体の水分がコーヒーの人怖い

ネルソンから昨日届いた豆、名刺3枚も入ってた
サボらず布教しろって事ですねハイ

伊丹9℃
あたたかいね

03/01 07:00
METAR RJOO 282200Z 07008KT 9999 FEW025 09/06 Q1026 RMK 1CU025 A3032=

その後は8000番台がつけられなくなったので現行の番号ルールになりました

JA8988(JALのB767)の後の番号の
JA8989とJA8990はJALが予約してたけど使わず
JA8991~JA8999はJTAのB734が付けてましたね
全機退役しましたけど

そのかつての規約でつけられた所謂JA8000番台登録機も、旅客機ではJALの
JA8980
JA8988
JA8978
JA8979
JA8944
JA8945
の6機を残すのみになりました。

かつては規約で「固定翼機はJA8xxx、番号は申請順」って決められてたのでそんなお遊びもできなかったのですが。

2月のJALも
201J~209JはCRJ200
211J~228JはE170
です。
2月はANAもあるのですが、
JA201A~JA208Aは旧A320
JA211A~JA222Aは新A320
です。

ちなみに揃っているように見えて1機抜けているANAの787(JA8xxA)ですが、
JA801A~JA825A、JA827A~JA829A、JA831AはB7878
JA830AはB787-9で単一機種ではないですね

あと抜けてるJA826Aですが、青森県警のヘリで登録されています

9月はこれから埋まる可能性もゼロではないですが
ANAが787-10をあと17機買えばあるいはw

@nelsoncoffeeroaster 飛行機部だけに響けばいいですw

【9月】JA901A~JA902Aしかなくてダメ

Show older
hikoukidon

個人運用サーバです。 Private server.